sensor_id;sensor_type;location;lat;lon;timestamp;P1;durP1;ratioP1;P2;durP2;ratioP2
32746;SDS011;19118;50.860;13.662;2023-06-22T00:01:08;12.93;;;9.20;;
32746;SDS011;19118;50.860;13.662;2023-06-22T00:06:09;16.40;;;9.03;;
32746;SDS011;19118;50.860;13.662;2023-06-22T00:11:09;17.30;;;8.65;;
32746;SDS011;19118;50.860;13.662;2023-06-22T00:16:10;14.07;;;9.23;;
32746;SDS011;19118;50.860;13.662;2023-06-22T00:21:10;12.88;;;8.70;;
32746;SDS011;19118;50.860;13.662;2023-06-22T00:26:12;15.88;;;9.65;;
32746;SDS011;19118;50.860;13.662;2023-06-22T00:31:13;11.70;;;9.35;;
32746;SDS011;19118;50.860;13.662;2023-06-22T00:36:13;13.70;;;8.40;;
32746;SDS011;19118;50.860;13.662;2023-06-22T00:41:17;16.42;;;9.60;;
32746;SDS011;19118;50.860;13.662;2023-06-22T00:46:18;13.63;;;8.90;;
32746;SDS011;19118;50.860;13.662;2023-06-22T00:51:18;15.30;;;8.30;;
32746;SDS011;19118;50.860;13.662;2023-06-22T00:56:20;14.95;;;8.85;;
32746;SDS011;19118;50.860;13.662;2023-06-22T01:01:24;11.55;;;8.57;;
32746;SDS011;19118;50.860;13.662;2023-06-22T01:06:26;11.17;;;8.37;;
32746;SDS011;19118;50.860;13.662;2023-06-22T01:11:39;14.73;;;9.07;;
32746;SDS011;19118;50.860;13.662;2023-06-22T01:16:45;21.25;;;8.93;;
32746;SDS011;19118;50.860;13.662;2023-06-22T01:21:48;36.22;;;9.70;;
32746;SDS011;19118;50.860;13.662;2023-06-22T01:27:08;15.70;;;9.25;;
32746;SDS011;19118;50.860;13.662;2023-06-22T01:32:22;15.50;;;8.50;;
32746;SDS011;19118;50.860;13.662;2023-06-22T01:37:23;14.98;;;9.25;;
32746;SDS011;19118;50.860;13.662;2023-06-22T01:42:25;11.82;;;8.63;;
32746;SDS011;19118;50.860;13.662;2023-06-22T01:47:26;21.15;;;8.55;;
32746;SDS011;19118;50.860;13.662;2023-06-22T01:52:27;15.45;;;9.32;;
32746;SDS011;19118;50.860;13.662;2023-06-22T01:57:30;17.75;;;8.13;;
32746;SDS011;19118;50.860;13.662;2023-06-22T02:02:36;14.52;;;7.70;;
32746;SDS011;19118;50.860;13.662;2023-06-22T02:07:56;14.15;;;7.97;;
32746;SDS011;19118;50.860;13.662;2023-06-22T02:13:06;13.02;;;7.72;;
32746;SDS011;19118;50.860;13.662;2023-06-22T02:18:08;18.08;;;8.98;;
32746;SDS011;19118;50.860;13.662;2023-06-22T02:23:08;13.45;;;9.15;;
32746;SDS011;19118;50.860;13.662;2023-06-22T02:28:09;20.02;;;8.65;;
32746;SDS011;19118;50.860;13.662;2023-06-22T02:33:09;13.88;;;8.13;;
32746;SDS011;19118;50.860;13.662;2023-06-22T02:38:10;16.20;;;8.05;;
32746;SDS011;19118;50.860;13.662;2023-06-22T02:43:10;23.15;;;8.70;;
32746;SDS011;19118;50.860;13.662;2023-06-22T02:48:13;15.00;;;9.10;;
32746;SDS011;19118;50.860;13.662;2023-06-22T02:53:14;14.50;;;8.15;;
32746;SDS011;19118;50.860;13.662;2023-06-22T02:58:19;15.95;;;9.40;;
32746;SDS011;19118;50.860;13.662;2023-06-22T03:03:19;17.20;;;8.18;;
32746;SDS011;19118;50.860;13.662;2023-06-22T03:08:20;16.23;;;8.38;;
32746;SDS011;19118;50.860;13.662;2023-06-22T03:13:20;16.30;;;8.82;;
32746;SDS011;19118;50.860;13.662;2023-06-22T03:18:21;23.67;;;9.13;;
32746;SDS011;19118;50.860;13.662;2023-06-22T03:23:22;20.50;;;8.43;;
32746;SDS011;19118;50.860;13.662;2023-06-22T03:28:22;13.80;;;8.60;;
32746;SDS011;19118;50.860;13.662;2023-06-22T03:33:23;20.25;;;8.05;;
32746;SDS011;19118;50.860;13.662;2023-06-22T03:38:23;25.37;;;7.60;;
32746;SDS011;19118;50.860;13.662;2023-06-22T03:43:27;14.55;;;8.65;;
32746;SDS011;19118;50.860;13.662;2023-06-22T03:48:27;20.10;;;9.27;;
32746;SDS011;19118;50.860;13.662;2023-06-22T03:53:27;15.57;;;7.67;;
32746;SDS011;19118;50.860;13.662;2023-06-22T03:58:28;15.63;;;8.40;;
32746;SDS011;19118;50.860;13.662;2023-06-22T04:03:32;22.58;;;8.18;;
32746;SDS011;19118;50.860;13.662;2023-06-22T04:08:33;15.67;;;7.87;;
32746;SDS011;19118;50.860;13.662;2023-06-22T04:13:33;12.73;;;8.03;;
32746;SDS011;19118;50.860;13.662;2023-06-22T04:18:33;13.93;;;6.20;;
32746;SDS011;19118;50.860;13.662;2023-06-22T04:23:33;11.20;;;6.60;;
32746;SDS011;19118;50.860;13.662;2023-06-22T04:28:34;14.57;;;6.10;;
32746;SDS011;19118;50.860;13.662;2023-06-22T04:33:37;9.80;;;6.15;;
32746;SDS011;19118;50.860;13.662;2023-06-22T04:38:40;17.80;;;11.10;;
32746;SDS011;19118;50.860;13.662;2023-06-22T04:43:42;20.38;;;11.63;;
32746;SDS011;19118;50.860;13.662;2023-06-22T04:48:42;31.60;;;12.70;;
32746;SDS011;19118;50.860;13.662;2023-06-22T04:53:42;43.50;;;14.07;;
32746;SDS011;19118;50.860;13.662;2023-06-22T04:58:43;22.33;;;9.97;;
32746;SDS011;19118;50.860;13.662;2023-06-22T05:03:43;71.23;;;10.03;;
32746;SDS011;19118;50.860;13.662;2023-06-22T05:08:44;23.45;;;8.25;;
32746;SDS011;19118;50.860;13.662;2023-06-22T05:13:44;14.43;;;8.00;;
32746;SDS011;19118;50.860;13.662;2023-06-22T05:18:44;20.47;;;8.23;;
32746;SDS011;19118;50.860;13.662;2023-06-22T05:23:44;14.50;;;8.07;;
32746;SDS011;19118;50.860;13.662;2023-06-22T05:28:45;12.93;;;7.57;;
32746;SDS011;19118;50.860;13.662;2023-06-22T05:33:46;14.18;;;7.55;;
32746;SDS011;19118;50.860;13.662;2023-06-22T05:38:47;11.27;;;6.78;;
32746;SDS011;19118;50.860;13.662;2023-06-22T05:43:47;11.10;;;6.72;;
32746;SDS011;19118;50.860;13.662;2023-06-22T05:48:48;15.57;;;7.00;;
32746;SDS011;19118;50.860;13.662;2023-06-22T05:53:48;10.33;;;7.30;;
32746;SDS011;19118;50.860;13.662;2023-06-22T05:58:49;11.43;;;7.82;;
32746;SDS011;19118;50.860;13.662;2023-06-22T06:03:50;19.37;;;7.50;;
32746;SDS011;19118;50.860;13.662;2023-06-22T06:08:52;15.13;;;8.00;;
32746;SDS011;19118;50.860;13.662;2023-06-22T06:13:53;13.83;;;6.70;;
32746;SDS011;19118;50.860;13.662;2023-06-22T06:18:53;11.97;;;7.63;;
32746;SDS011;19118;50.860;13.662;2023-06-22T06:23:55;14.98;;;8.20;;
32746;SDS011;19118;50.860;13.662;2023-06-22T06:28:56;13.10;;;8.33;;
32746;SDS011;19118;50.860;13.662;2023-06-22T06:33:57;9.43;;;7.25;;
32746;SDS011;19118;50.860;13.662;2023-06-22T06:38:57;11.93;;;6.60;;
32746;SDS011;19118;50.860;13.662;2023-06-22T06:43:58;11.65;;;7.88;;
32746;SDS011;19118;50.860;13.662;2023-06-22T06:48:58;11.43;;;7.30;;
32746;SDS011;19118;50.860;13.662;2023-06-22T06:53:59;11.00;;;7.37;;
32746;SDS011;19118;50.860;13.662;2023-06-22T06:58:59;9.13;;;6.83;;
32746;SDS011;19118;50.860;13.662;2023-06-22T07:04:00;12.90;;;6.93;;
32746;SDS011;19118;50.860;13.662;2023-06-22T07:09:01;8.88;;;7.00;;
32746;SDS011;19118;50.860;13.662;2023-06-22T07:14:01;11.57;;;8.20;;
32746;SDS011;19118;50.860;13.662;2023-06-22T07:19:02;16.25;;;8.55;;
32746;SDS011;19118;50.860;13.662;2023-06-22T07:24:02;12.15;;;7.63;;
32746;SDS011;19118;50.860;13.662;2023-06-22T07:29:03;11.77;;;7.93;;
32746;SDS011;19118;50.860;13.662;2023-06-22T07:34:04;10.32;;;7.75;;
32746;SDS011;19118;50.860;13.662;2023-06-22T07:39:04;18.83;;;8.20;;
32746;SDS011;19118;50.860;13.662;2023-06-22T07:44:05;14.48;;;7.60;;
32746;SDS011;19118;50.860;13.662;2023-06-22T07:49:06;12.77;;;7.45;;
32746;SDS011;19118;50.860;13.662;2023-06-22T07:54:09;11.95;;;7.78;;
32746;SDS011;19118;50.860;13.662;2023-06-22T07:59:09;17.23;;;7.88;;
32746;SDS011;19118;50.860;13.662;2023-06-22T08:04:10;10.77;;;7.90;;
32746;SDS011;19118;50.860;13.662;2023-06-22T08:09:10;12.03;;;7.60;;
32746;SDS011;19118;50.860;13.662;2023-06-22T08:14:10;7.80;;;6.80;;
32746;SDS011;19118;50.860;13.662;2023-06-22T08:19:11;14.97;;;7.77;;
32746;SDS011;19118;50.860;13.662;2023-06-22T08:24:11;10.80;;;7.53;;
32746;SDS011;19118;50.860;13.662;2023-06-22T08:29:11;15.43;;;8.53;;
32746;SDS011;19118;50.860;13.662;2023-06-22T08:34:12;17.10;;;7.73;;
32746;SDS011;19118;50.860;13.662;2023-06-22T08:39:12;13.03;;;8.13;;
32746;SDS011;19118;50.860;13.662;2023-06-22T08:44:13;13.60;;;7.70;;
32746;SDS011;19118;50.860;13.662;2023-06-22T08:49:13;9.35;;;7.78;;
32746;SDS011;19118;50.860;13.662;2023-06-22T08:54:14;8.85;;;6.55;;
32746;SDS011;19118;50.860;13.662;2023-06-22T08:59:14;7.97;;;6.53;;
32746;SDS011;19118;50.860;13.662;2023-06-22T09:04:15;10.38;;;7.25;;
32746;SDS011;19118;50.860;13.662;2023-06-22T09:09:15;9.43;;;7.00;;
32746;SDS011;19118;50.860;13.662;2023-06-22T09:14:16;8.80;;;6.60;;
32746;SDS011;19118;50.860;13.662;2023-06-22T09:19:17;9.45;;;6.38;;
32746;SDS011;19118;50.860;13.662;2023-06-22T09:24:17;8.70;;;6.90;;
32746;SDS011;19118;50.860;13.662;2023-06-22T09:29:17;9.23;;;6.90;;
32746;SDS011;19118;50.860;13.662;2023-06-22T09:34:18;10.83;;;8.23;;
32746;SDS011;19118;50.860;13.662;2023-06-22T09:39:20;12.43;;;8.27;;
32746;SDS011;19118;50.860;13.662;2023-06-22T09:44:20;9.80;;;7.07;;
32746;SDS011;19118;50.860;13.662;2023-06-22T09:49:20;13.23;;;7.77;;
32746;SDS011;19118;50.860;13.662;2023-06-22T09:54:21;13.10;;;8.47;;
32746;SDS011;19118;50.860;13.662;2023-06-22T09:59:21;9.17;;;7.77;;
32746;SDS011;19118;50.860;13.662;2023-06-22T10:04:21;15.43;;;7.83;;
32746;SDS011;19118;50.860;13.662;2023-06-22T10:09:22;13.47;;;8.07;;
32746;SDS011;19118;50.860;13.662;2023-06-22T10:14:22;9.90;;;8.13;;
32746;SDS011;19118;50.860;13.662;2023-06-22T10:19:24;12.38;;;8.80;;
32746;SDS011;19118;50.860;13.662;2023-06-22T10:24:24;11.83;;;8.23;;
32746;SDS011;19118;50.860;13.662;2023-06-22T10:29:25;10.23;;;8.67;;
32746;SDS011;19118;50.860;13.662;2023-06-22T10:34:25;13.57;;;8.07;;
32746;SDS011;19118;50.860;13.662;2023-06-22T10:39:25;12.07;;;7.13;;
32746;SDS011;19118;50.860;13.662;2023-06-22T10:44:25;13.03;;;8.47;;
32746;SDS011;19118;50.860;13.662;2023-06-22T10:49:26;12.27;;;8.07;;
32746;SDS011;19118;50.860;13.662;2023-06-22T10:54:26;9.03;;;7.73;;
32746;SDS011;19118;50.860;13.662;2023-06-22T10:59:26;10.23;;;7.93;;
32746;SDS011;19118;50.860;13.662;2023-06-22T11:04:28;10.82;;;7.78;;
32746;SDS011;19118;50.860;13.662;2023-06-22T11:09:29;10.67;;;8.00;;
32746;SDS011;19118;50.860;13.662;2023-06-22T11:14:29;13.07;;;7.67;;
32746;SDS011;19118;50.860;13.662;2023-06-22T11:19:29;7.70;;;6.75;;
32746;SDS011;19118;50.860;13.662;2023-06-22T11:24:30;11.37;;;7.13;;
32746;SDS011;19118;50.860;13.662;2023-06-22T11:29:30;9.60;;;7.23;;
32746;SDS011;19118;50.860;13.662;2023-06-22T11:34:31;15.63;;;7.38;;
32746;SDS011;19118;50.860;13.662;2023-06-22T11:39:31;8.93;;;7.30;;
32746;SDS011;19118;50.860;13.662;2023-06-22T11:44:31;16.50;;;6.77;;
32746;SDS011;19118;50.860;13.662;2023-06-22T11:49:32;11.33;;;7.10;;
32746;SDS011;19118;50.860;13.662;2023-06-22T11:54:32;13.07;;;7.53;;
32746;SDS011;19118;50.860;13.662;2023-06-22T11:59:32;11.03;;;7.00;;
32746;SDS011;19118;50.860;13.662;2023-06-22T12:04:33;14.33;;;7.50;;
32746;SDS011;19118;50.860;13.662;2023-06-22T12:09:33;9.10;;;6.87;;
32746;SDS011;19118;50.860;13.662;2023-06-22T12:14:33;13.13;;;6.90;;
32746;SDS011;19118;50.860;13.662;2023-06-22T12:19:34;10.32;;;6.60;;
32746;SDS011;19118;50.860;13.662;2023-06-22T12:24:34;15.87;;;6.60;;
32746;SDS011;19118;50.860;13.662;2023-06-22T12:29:35;7.43;;;6.10;;
32746;SDS011;19118;50.860;13.662;2023-06-22T12:34:35;15.57;;;6.97;;
32746;SDS011;19118;50.860;13.662;2023-06-22T12:39:35;14.77;;;6.40;;
32746;SDS011;19118;50.860;13.662;2023-06-22T12:44:37;10.35;;;6.47;;
32746;SDS011;19118;50.860;13.662;2023-06-22T12:49:38;8.70;;;6.45;;
32746;SDS011;19118;50.860;13.662;2023-06-22T12:54:38;10.20;;;6.53;;
32746;SDS011;19118;50.860;13.662;2023-06-22T12:59:38;10.70;;;6.00;;
32746;SDS011;19118;50.860;13.662;2023-06-22T13:04:38;9.97;;;6.83;;
32746;SDS011;19118;50.860;13.662;2023-06-22T13:09:39;11.87;;;6.47;;
32746;SDS011;19118;50.860;13.662;2023-06-22T13:14:39;8.87;;;6.00;;
32746;SDS011;19118;50.860;13.662;2023-06-22T13:19:40;10.00;;;5.65;;
32746;SDS011;19118;50.860;13.662;2023-06-22T13:24:40;10.70;;;6.23;;
32746;SDS011;19118;50.860;13.662;2023-06-22T13:29:40;10.83;;;5.87;;
32746;SDS011;19118;50.860;13.662;2023-06-22T13:34:41;10.30;;;5.63;;
32746;SDS011;19118;50.860;13.662;2023-06-22T13:39:42;11.45;;;6.68;;
32746;SDS011;19118;50.860;13.662;2023-06-22T13:44:42;9.03;;;5.80;;
32746;SDS011;19118;50.860;13.662;2023-06-22T13:49:42;9.00;;;5.70;;
32746;SDS011;19118;50.860;13.662;2023-06-22T13:54:43;8.13;;;5.93;;
32746;SDS011;19118;50.860;13.662;2023-06-22T13:59:43;9.00;;;5.57;;
32746;SDS011;19118;50.860;13.662;2023-06-22T14:04:43;8.47;;;5.87;;
32746;SDS011;19118;50.860;13.662;2023-06-22T14:09:44;13.77;;;6.83;;
32746;SDS011;19118;50.860;13.662;2023-06-22T14:14:44;10.93;;;5.60;;
32746;SDS011;19118;50.860;13.662;2023-06-22T14:19:45;12.38;;;6.72;;
32746;SDS011;19118;50.860;13.662;2023-06-22T14:24:45;9.90;;;6.10;;
32746;SDS011;19118;50.860;13.662;2023-06-22T14:29:46;6.80;;;5.55;;
32746;SDS011;19118;50.860;13.662;2023-06-22T14:34:46;7.93;;;5.53;;
32746;SDS011;19118;50.860;13.662;2023-06-22T14:39:47;13.00;;;6.53;;
32746;SDS011;19118;50.860;13.662;2023-06-22T14:44:47;8.10;;;5.70;;
32746;SDS011;19118;50.860;13.662;2023-06-22T14:49:48;9.13;;;6.30;;
32746;SDS011;19118;50.860;13.662;2023-06-22T14:54:49;9.43;;;6.60;;
32746;SDS011;19118;50.860;13.662;2023-06-22T14:59:52;8.05;;;5.80;;
32746;SDS011;19118;50.860;13.662;2023-06-22T15:04:55;10.32;;;5.90;;
32746;SDS011;19118;50.860;13.662;2023-06-22T15:09:56;10.70;;;6.07;;
32746;SDS011;19118;50.860;13.662;2023-06-22T15:14:56;8.37;;;6.23;;
32746;SDS011;19118;50.860;13.662;2023-06-22T15:19:57;11.17;;;7.47;;
32746;SDS011;19118;50.860;13.662;2023-06-22T15:24:58;14.63;;;6.18;;
32746;SDS011;19118;50.860;13.662;2023-06-22T15:29:59;8.70;;;6.03;;
32746;SDS011;19118;50.860;13.662;2023-06-22T15:34:59;8.73;;;6.03;;
32746;SDS011;19118;50.860;13.662;2023-06-22T15:39:59;6.43;;;5.60;;
32746;SDS011;19118;50.860;13.662;2023-06-22T15:45:00;7.30;;;5.70;;
32746;SDS011;19118;50.860;13.662;2023-06-22T15:50:00;9.80;;;6.67;;
32746;SDS011;19118;50.860;13.662;2023-06-22T15:55:00;8.60;;;6.03;;
32746;SDS011;19118;50.860;13.662;2023-06-22T16:00:01;9.75;;;5.68;;
32746;SDS011;19118;50.860;13.662;2023-06-22T16:05:01;10.02;;;6.50;;
32746;SDS011;19118;50.860;13.662;2023-06-22T16:10:03;10.40;;;6.32;;
32746;SDS011;19118;50.860;13.662;2023-06-22T16:15:04;9.18;;;6.07;;
32746;SDS011;19118;50.860;13.662;2023-06-22T16:20:05;14.60;;;6.40;;
32746;SDS011;19118;50.860;13.662;2023-06-22T16:25:06;19.27;;;6.88;;
32746;SDS011;19118;50.860;13.662;2023-06-22T16:30:07;11.52;;;6.72;;
32746;SDS011;19118;50.860;13.662;2023-06-22T16:35:08;16.73;;;6.57;;
32746;SDS011;19118;50.860;13.662;2023-06-22T16:40:09;8.13;;;6.43;;
32746;SDS011;19118;50.860;13.662;2023-06-22T16:45:13;10.85;;;5.65;;
32746;SDS011;19118;50.860;13.662;2023-06-22T16:50:17;8.68;;;6.03;;
32746;SDS011;19118;50.860;13.662;2023-06-22T16:55:18;9.93;;;6.43;;
32746;SDS011;19118;50.860;13.662;2023-06-22T17:00:22;7.60;;;6.10;;
32746;SDS011;19118;50.860;13.662;2023-06-22T17:05:22;10.65;;;6.30;;
32746;SDS011;19118;50.860;13.662;2023-06-22T17:10:23;7.13;;;5.18;;
32746;SDS011;19118;50.860;13.662;2023-06-22T17:15:24;9.30;;;5.90;;
32746;SDS011;19118;50.860;13.662;2023-06-22T17:20:24;11.60;;;6.13;;
32746;SDS011;19118;50.860;13.662;2023-06-22T17:25:27;10.23;;;5.97;;
32746;SDS011;19118;50.860;13.662;2023-06-22T17:30:29;8.68;;;6.18;;
32746;SDS011;19118;50.860;13.662;2023-06-22T17:35:30;10.80;;;5.88;;
32746;SDS011;19118;50.860;13.662;2023-06-22T17:40:30;10.07;;;7.05;;
32746;SDS011;19118;50.860;13.662;2023-06-22T17:45:31;7.22;;;5.80;;
32746;SDS011;19118;50.860;13.662;2023-06-22T17:50:31;9.17;;;6.20;;
32746;SDS011;19118;50.860;13.662;2023-06-22T17:55:31;10.73;;;6.60;;
32746;SDS011;19118;50.860;13.662;2023-06-22T18:00:33;11.70;;;6.47;;
32746;SDS011;19118;50.860;13.662;2023-06-22T18:05:34;22.45;;;6.57;;
32746;SDS011;19118;50.860;13.662;2023-06-22T18:10:36;8.85;;;7.00;;
32746;SDS011;19118;50.860;13.662;2023-06-22T18:15:40;16.45;;;7.22;;
32746;SDS011;19118;50.860;13.662;2023-06-22T18:20:41;11.45;;;7.07;;
32746;SDS011;19118;50.860;13.662;2023-06-22T18:25:42;18.00;;;7.47;;
32746;SDS011;19118;50.860;13.662;2023-06-22T18:30:45;16.05;;;6.97;;
32746;SDS011;19118;50.860;13.662;2023-06-22T18:35:46;16.50;;;7.25;;
32746;SDS011;19118;50.860;13.662;2023-06-22T18:40:49;11.57;;;7.18;;
32746;SDS011;19118;50.860;13.662;2023-06-22T18:45:50;10.15;;;7.90;;
32746;SDS011;19118;50.860;13.662;2023-06-22T18:50:51;10.90;;;7.30;;
32746;SDS011;19118;50.860;13.662;2023-06-22T18:55:51;12.40;;;8.27;;
32746;SDS011;19118;50.860;13.662;2023-06-22T19:01:14;13.57;;;7.88;;
32746;SDS011;19118;50.860;13.662;2023-06-22T19:11:50;10.98;;;7.68;;
32746;SDS011;19118;50.860;13.662;2023-06-22T19:17:18;13.93;;;8.50;;
32746;SDS011;19118;50.860;13.662;2023-06-22T19:22:18;16.50;;;8.45;;
32746;SDS011;19118;50.860;13.662;2023-06-22T19:27:19;10.77;;;7.73;;
32746;SDS011;19118;50.860;13.662;2023-06-22T19:32:19;13.27;;;9.32;;
32746;SDS011;19118;50.860;13.662;2023-06-22T19:37:20;14.33;;;8.33;;
32746;SDS011;19118;50.860;13.662;2023-06-22T19:42:20;14.17;;;8.63;;
32746;SDS011;19118;50.860;13.662;2023-06-22T19:47:20;11.97;;;8.87;;
32746;SDS011;19118;50.860;13.662;2023-06-22T19:52:21;12.53;;;8.40;;
32746;SDS011;19118;50.860;13.662;2023-06-22T19:57:21;15.40;;;8.87;;
32746;SDS011;19118;50.860;13.662;2023-06-22T20:02:25;18.30;;;10.47;;
32746;SDS011;19118;50.860;13.662;2023-06-22T20:07:33;18.70;;;10.38;;
32746;SDS011;19118;50.860;13.662;2023-06-22T20:12:35;18.95;;;10.20;;
32746;SDS011;19118;50.860;13.662;2023-06-22T20:17:42;15.48;;;10.48;;
32746;SDS011;19118;50.860;13.662;2023-06-22T20:22:47;15.38;;;10.25;;
32746;SDS011;19118;50.860;13.662;2023-06-22T20:27:48;15.32;;;9.73;;
32746;SDS011;19118;50.860;13.662;2023-06-22T20:32:59;16.13;;;10.60;;
32746;SDS011;19118;50.860;13.662;2023-06-22T20:37:59;21.30;;;10.33;;
32746;SDS011;19118;50.860;13.662;2023-06-22T20:43:00;17.10;;;10.35;;
32746;SDS011;19118;50.860;13.662;2023-06-22T20:48:01;21.65;;;11.23;;
32746;SDS011;19118;50.860;13.662;2023-06-22T20:53:02;17.07;;;10.30;;
32746;SDS011;19118;50.860;13.662;2023-06-22T20:58:04;17.42;;;11.05;;
32746;SDS011;19118;50.860;13.662;2023-06-22T21:03:08;16.95;;;9.88;;
32746;SDS011;19118;50.860;13.662;2023-06-22T21:08:10;19.45;;;10.52;;
32746;SDS011;19118;50.860;13.662;2023-06-22T21:13:10;20.15;;;11.70;;
32746;SDS011;19118;50.860;13.662;2023-06-22T21:18:11;15.93;;;9.53;;
32746;SDS011;19118;50.860;13.662;2023-06-22T21:23:11;13.70;;;10.70;;
32746;SDS011;19118;50.860;13.662;2023-06-22T21:28:12;13.32;;;8.80;;
32746;SDS011;19118;50.860;13.662;2023-06-22T21:33:12;18.70;;;10.77;;
32746;SDS011;19118;50.860;13.662;2023-06-22T21:38:13;15.75;;;10.50;;
32746;SDS011;19118;50.860;13.662;2023-06-22T21:43:13;19.23;;;9.63;;
32746;SDS011;19118;50.860;13.662;2023-06-22T21:48:14;16.73;;;9.73;;
32746;SDS011;19118;50.860;13.662;2023-06-22T21:53:14;13.27;;;9.27;;
32746;SDS011;19118;50.860;13.662;2023-06-22T21:58:14;28.77;;;10.93;;
32746;SDS011;19118;50.860;13.662;2023-06-22T22:03:15;23.40;;;10.85;;
32746;SDS011;19118;50.860;13.662;2023-06-22T22:08:15;27.57;;;12.03;;
32746;SDS011;19118;50.860;13.662;2023-06-22T22:13:16;20.35;;;11.40;;
32746;SDS011;19118;50.860;13.662;2023-06-22T22:18:18;25.42;;;12.35;;
32746;SDS011;19118;50.860;13.662;2023-06-22T22:23:18;18.10;;;10.77;;
32746;SDS011;19118;50.860;13.662;2023-06-22T22:28:19;21.10;;;10.67;;
32746;SDS011;19118;50.860;13.662;2023-06-22T22:33:19;20.00;;;13.95;;
32746;SDS011;19118;50.860;13.662;2023-06-22T22:38:20;37.23;;;18.27;;
32746;SDS011;19118;50.860;13.662;2023-06-22T22:43:20;30.17;;;17.87;;
32746;SDS011;19118;50.860;13.662;2023-06-22T22:48:20;32.93;;;21.27;;
32746;SDS011;19118;50.860;13.662;2023-06-22T22:53:21;30.50;;;21.90;;
32746;SDS011;19118;50.860;13.662;2023-06-22T22:58:21;20.63;;;5.93;;
32746;SDS011;19118;50.860;13.662;2023-06-22T23:03:21;22.13;;;4.23;;
32746;SDS011;19118;50.860;13.662;2023-06-22T23:08:22;17.77;;;3.50;;
32746;SDS011;19118;50.860;13.662;2023-06-22T23:13:23;16.10;;;5.15;;
32746;SDS011;19118;50.860;13.662;2023-06-22T23:18:23;16.73;;;4.27;;
32746;SDS011;19118;50.860;13.662;2023-06-22T23:23:23;29.10;;;4.97;;
32746;SDS011;19118;50.860;13.662;2023-06-22T23:28:24;24.13;;;3.45;;
32746;SDS011;19118;50.860;13.662;2023-06-22T23:33:24;12.77;;;3.73;;
32746;SDS011;19118;50.860;13.662;2023-06-22T23:38:25;9.87;;;3.23;;
32746;SDS011;19118;50.860;13.662;2023-06-22T23:43:26;15.15;;;3.90;;
32746;SDS011;19118;50.860;13.662;2023-06-22T23:48:27;10.70;;;3.65;;
32746;SDS011;19118;50.860;13.662;2023-06-22T23:53:27;20.48;;;3.75;;
32746;SDS011;19118;50.860;13.662;2023-06-22T23:58:28;25.10;;;3.83;;
